createdAt,value
2023-05-25T00:01:28.227Z,53.83
2023-05-25T00:06:33.480Z,54.90
2023-05-25T00:11:36.895Z,55.01
2023-05-25T00:16:41.188Z,56.28
2023-05-25T00:21:48.717Z,57.19
2023-05-25T00:26:52.467Z,57.58
2023-05-25T00:31:55.974Z,57.40
2023-05-25T00:36:59.598Z,58.06
2023-05-25T00:42:04.138Z,58.14
2023-05-25T00:47:07.647Z,58.32
2023-05-25T00:52:13.277Z,59.55
2023-05-25T00:57:22.669Z,60.35
2023-05-25T01:02:27.319Z,61.20
2023-05-25T01:07:31.450Z,61.20
2023-05-25T01:12:37.000Z,61.33
2023-05-25T01:17:41.296Z,61.99
2023-05-25T01:22:52.019Z,62.77
2023-05-25T01:28:07.314Z,63.37
2023-05-25T01:33:11.190Z,63.70
2023-05-25T01:38:15.066Z,63.99
2023-05-25T01:43:18.573Z,64.61
2023-05-25T01:48:36.116Z,64.44
2023-05-25T01:53:54.584Z,64.58
2023-05-25T01:59:02.420Z,65.23
2023-05-25T02:04:06.461Z,65.98
2023-05-25T02:09:10.160Z,65.74
2023-05-25T02:14:14.177Z,67.01
2023-05-25T02:19:17.590Z,66.87
2023-05-25T02:24:23.865Z,67.28
2023-05-25T02:29:27.389Z,66.91
2023-05-25T02:34:31.110Z,68.39
2023-05-25T02:39:34.730Z,68.98
2023-05-25T02:44:38.549Z,69.44
2023-05-25T02:49:42.067Z,70.05
2023-05-25T02:54:45.786Z,69.76
2023-05-25T02:59:50.168Z,69.52
2023-05-25T03:04:54.164Z,69.80
2023-05-25T03:09:58.479Z,69.56
2023-05-25T03:15:02.004Z,69.25
2023-05-25T03:20:06.585Z,69.02
2023-05-25T03:25:13.843Z,69.38
2023-05-25T03:30:17.368Z,69.76
2023-05-25T03:35:21.093Z,69.96
2023-05-25T03:40:24.816Z,70.23
2023-05-25T03:45:28.427Z,70.34
2023-05-25T03:50:32.452Z,71.08
2023-05-25T03:55:35.864Z,71.36
2023-05-25T04:00:39.590Z,71.48
2023-05-25T04:05:43.357Z,71.78
2023-05-25T04:10:47.120Z,71.91
2023-05-25T04:15:51.665Z,71.98
2023-05-25T04:20:57.738Z,71.79
2023-05-25T04:26:02.178Z,71.58
2023-05-25T04:31:06.182Z,71.65
2023-05-25T04:36:11.349Z,71.64
2023-05-25T04:41:15.615Z,71.75
2023-05-25T04:46:19.226Z,71.94
2023-05-25T04:51:23.331Z,71.66
2023-05-25T04:56:27.107Z,71.34
2023-05-25T05:01:31.357Z,71.38
2023-05-25T05:06:35.628Z,71.09
2023-05-25T05:11:39.346Z,70.96
2023-05-25T05:16:42.890Z,70.91
2023-05-25T05:21:46.580Z,70.86
2023-05-25T05:26:58.194Z,70.72
2023-05-25T05:32:02.623Z,70.49
2023-05-25T05:37:06.234Z,70.34
2023-05-25T05:42:09.855Z,70.30
2023-05-25T05:47:13.376Z,70.12
2023-05-25T05:52:17.193Z,69.40
2023-05-25T05:57:21.422Z,69.31
2023-05-25T06:02:25.106Z,69.15
2023-05-25T06:07:31.224Z,69.00
2023-05-25T06:12:35.066Z,68.86
2023-05-25T06:17:38.527Z,68.39
2023-05-25T06:22:42.182Z,68.12
2023-05-25T06:27:45.799Z,67.72
2023-05-25T06:32:49.456Z,67.36
2023-05-25T06:37:53.243Z,67.01
2023-05-25T06:42:56.647Z,66.95
2023-05-25T06:48:00.536Z,66.48
2023-05-25T06:53:04.808Z,66.31
2023-05-25T06:58:08.211Z,65.77
2023-05-25T07:03:11.757Z,65.56
2023-05-25T07:08:15.360Z,65.23
2023-05-25T07:13:18.869Z,64.81
2023-05-25T07:18:22.382Z,64.10
2023-05-25T07:23:25.923Z,64.09
2023-05-25T07:28:29.315Z,63.68
2023-05-25T07:33:33.340Z,62.65
2023-05-25T07:38:36.960Z,62.02
2023-05-25T07:43:40.992Z,61.84
2023-05-25T07:48:44.500Z,61.81
2023-05-25T07:53:48.018Z,61.33
2023-05-25T07:58:51.742Z,60.83
2023-05-25T08:03:55.854Z,60.10
2023-05-25T08:08:59.398Z,60.14
2023-05-25T08:14:03.012Z,59.42
2023-05-25T08:19:06.818Z,59.00
2023-05-25T08:24:10.335Z,58.51
2023-05-25T08:29:13.952Z,57.61
2023-05-25T08:34:17.578Z,57.46
2023-05-25T08:39:20.993Z,57.38
2023-05-25T08:44:24.398Z,56.99
2023-05-25T08:49:29.502Z,55.93
2023-05-25T08:54:36.821Z,55.52
2023-05-25T08:59:57.164Z,55.31
2023-05-25T09:05:02.543Z,54.52
2023-05-25T09:10:08.009Z,53.74
2023-05-25T09:15:12.464Z,53.09
2023-05-25T09:20:18.909Z,51.82
2023-05-25T09:25:26.527Z,51.26
2023-05-25T09:30:33.326Z,50.49
2023-05-25T09:35:37.670Z,49.28
2023-05-25T09:40:41.579Z,48.47
2023-05-25T09:45:45.637Z,47.51
2023-05-25T09:50:50.180Z,46.90
2023-05-25T09:55:54.581Z,46.33
2023-05-25T10:00:58.644Z,46.00
2023-05-25T10:06:03.567Z,45.99
2023-05-25T10:11:07.994Z,46.47
2023-05-25T10:16:13.775Z,46.37
2023-05-25T10:21:18.830Z,46.63
2023-05-25T10:26:26.740Z,46.20
2023-05-25T10:31:32.544Z,45.66
2023-05-25T10:36:38.485Z,44.80
2023-05-25T10:41:42.701Z,44.71
2023-05-25T10:46:46.205Z,44.48
2023-05-25T10:51:58.704Z,44.19
2023-05-25T10:57:14.490Z,44.37
2023-05-25T11:02:23.853Z,44.48
2023-05-25T11:07:27.726Z,43.50
2023-05-25T11:12:31.171Z,43.80
2023-05-25T11:17:45.372Z,43.78
2023-05-25T11:22:52.509Z,43.51
2023-05-25T11:28:03.509Z,43.57
2023-05-25T11:33:08.169Z,43.83
2023-05-25T11:38:12.375Z,44.08
2023-05-25T11:43:16.300Z,44.18
2023-05-25T11:48:19.931Z,44.14
2023-05-25T11:53:23.737Z,44.06
2023-05-25T11:58:34.268Z,43.59
2023-05-25T12:03:37.771Z,43.40
2023-05-25T12:08:41.445Z,42.85
2023-05-25T12:13:45.064Z,42.77
2023-05-25T12:18:48.835Z,42.52
2023-05-25T12:23:54.961Z,41.63
2023-05-25T12:29:06.259Z,41.57
2023-05-25T12:34:17.781Z,40.90
2023-05-25T12:39:30.664Z,40.50
2023-05-25T12:44:35.730Z,40.58
2023-05-25T12:49:40.246Z,40.27
2023-05-25T12:54:45.495Z,39.56
2023-05-25T12:59:56.797Z,39.61
2023-05-25T13:05:00.402Z,39.51
2023-05-25T13:10:04.060Z,39.58
2023-05-25T13:15:08.071Z,39.43
2023-05-25T13:20:15.854Z,39.30
2023-05-25T13:25:19.755Z,39.58
2023-05-25T13:30:23.313Z,39.86
2023-05-25T13:35:46.385Z,39.87
2023-05-25T13:40:50.062Z,39.95
2023-05-25T13:45:54.140Z,39.99
2023-05-25T13:50:57.500Z,39.81
2023-05-25T13:56:01.424Z,39.24
2023-05-25T14:01:05.497Z,38.95
2023-05-25T14:06:09.074Z,38.93
2023-05-25T14:11:12.590Z,38.43
2023-05-25T14:16:16.209Z,38.20
2023-05-25T14:21:20.128Z,38.44
2023-05-25T14:26:24.670Z,38.83
2023-05-25T14:31:28.768Z,39.27
2023-05-25T14:36:32.208Z,39.30
2023-05-25T14:41:35.933Z,38.15
2023-05-25T14:46:39.408Z,38.24
2023-05-25T14:51:43.477Z,38.10
2023-05-25T14:56:47.919Z,35.11
2023-05-25T15:01:51.704Z,34.14
2023-05-25T15:06:55.353Z,34.48
2023-05-25T15:11:59.868Z,35.55
2023-05-25T15:17:03.411Z,36.58
2023-05-25T15:22:07.236Z,37.70
2023-05-25T15:27:10.849Z,39.91
2023-05-25T15:32:17.952Z,40.76
2023-05-25T15:37:21.466Z,41.99
2023-05-25T15:42:25.006Z,43.54
2023-05-25T15:47:28.687Z,44.57
2023-05-25T15:52:32.423Z,43.69
2023-05-25T15:57:36.048Z,41.91
2023-05-25T16:02:39.669Z,41.91
2023-05-25T16:07:43.380Z,41.77
2023-05-25T16:12:47.000Z,38.93
2023-05-25T16:17:50.726Z,37.64
2023-05-25T16:22:54.129Z,37.80
2023-05-25T16:27:57.853Z,36.31
2023-05-25T16:33:01.428Z,33.73
2023-05-25T16:38:05.183Z,32.23
2023-05-25T16:43:08.601Z,31.08
2023-05-25T16:48:12.277Z,31.10
2023-05-25T16:53:15.848Z,31.92
2023-05-25T16:58:19.350Z,31.86
2023-05-25T17:03:23.024Z,31.22
2023-05-25T17:08:26.717Z,31.66
2023-05-25T17:13:30.209Z,32.88
2023-05-25T17:18:33.669Z,33.78
2023-05-25T17:23:37.237Z,34.04
2023-05-25T17:28:40.750Z,34.53
2023-05-25T17:33:44.382Z,35.14
2023-05-25T17:38:47.987Z,36.29
2023-05-25T17:43:51.505Z,36.15
2023-05-25T17:48:55.022Z,36.88
2023-05-25T17:53:58.548Z,37.98
2023-05-25T17:59:02.155Z,38.99
2023-05-25T18:04:05.811Z,40.05
2023-05-25T18:09:09.510Z,41.40
2023-05-25T18:14:12.804Z,42.87
2023-05-25T18:19:18.262Z,44.77
2023-05-25T18:24:21.793Z,45.58
2023-05-25T18:29:25.192Z,46.07
2023-05-25T18:34:29.894Z,47.35
2023-05-25T18:39:34.231Z,47.88
2023-05-25T18:44:37.567Z,48.82
2023-05-25T18:49:41.202Z,50.30
2023-05-25T18:54:44.514Z,52.37
2023-05-25T18:59:48.133Z,52.41
2023-05-25T19:04:51.592Z,53.56
2023-05-25T19:09:55.160Z,54.74
2023-05-25T19:15:01.176Z,54.44
2023-05-25T19:20:05.196Z,55.49
2023-05-25T19:25:08.610Z,55.75
2023-05-25T19:30:12.353Z,56.15
2023-05-25T19:35:15.710Z,56.26
2023-05-25T19:40:19.684Z,56.56
2023-05-25T19:45:23.155Z,56.91
2023-05-25T19:50:30.876Z,57.81
2023-05-25T19:55:36.529Z,58.44
2023-05-25T20:00:40.003Z,57.72
2023-05-25T20:05:44.204Z,57.83
2023-05-25T20:10:48.201Z,57.32
2023-05-25T20:15:51.674Z,56.84
2023-05-25T20:20:55.332Z,56.65
2023-05-25T20:25:59.069Z,56.61
2023-05-25T20:31:02.578Z,56.30
2023-05-25T20:36:06.348Z,56.35
2023-05-25T20:41:09.802Z,56.26
2023-05-25T20:46:13.393Z,56.61
2023-05-25T20:51:17.146Z,56.58
2023-05-25T20:56:20.764Z,57.10
2023-05-25T21:01:24.724Z,57.17
2023-05-25T21:06:28.108Z,56.94
2023-05-25T21:11:32.034Z,57.35
2023-05-25T21:16:35.508Z,57.77
2023-05-25T21:21:39.476Z,57.74
2023-05-25T21:26:48.172Z,57.79
2023-05-25T21:31:52.125Z,58.46
2023-05-25T21:36:55.750Z,58.40
2023-05-25T21:41:59.376Z,58.67
2023-05-25T21:47:03.026Z,59.23
2023-05-25T21:52:06.910Z,59.68
2023-05-25T21:57:10.438Z,59.71
2023-05-25T22:02:14.220Z,59.57
2023-05-25T22:07:18.072Z,59.97
2023-05-25T22:12:21.606Z,60.05
2023-05-25T22:17:25.221Z,60.39
2023-05-25T22:22:28.722Z,60.75
2023-05-25T22:27:33.368Z,60.73
2023-05-25T22:32:36.939Z,60.79
2023-05-25T22:37:41.313Z,61.11
2023-05-25T22:42:50.466Z,61.36
2023-05-25T22:47:54.113Z,61.52
2023-05-25T22:52:57.702Z,61.36
2023-05-25T22:58:01.238Z,61.59
2023-05-25T23:03:04.915Z,61.58
2023-05-25T23:08:09.069Z,61.77
2023-05-25T23:13:14.726Z,62.24
2023-05-25T23:18:18.161Z,62.39
2023-05-25T23:23:21.860Z,62.90
2023-05-25T23:28:25.430Z,63.37
2023-05-25T23:33:29.608Z,63.44
2023-05-25T23:38:33.023Z,64.20
2023-05-25T23:43:36.587Z,64.26
2023-05-25T23:48:40.171Z,64.86
2023-05-25T23:53:43.778Z,65.13
2023-05-25T23:58:47.393Z,64.68
